sensor_id;sensor_type;location;lat;lon;timestamp;temperature;humidity
67750;DHT22;54550;48.838;8.828;2023-02-28T00:00:18;-3.40;99.90
67750;DHT22;54550;48.838;8.828;2023-02-28T00:02:45;-3.40;99.90
67750;DHT22;54550;48.838;8.828;2023-02-28T00:05:13;-3.50;99.90
67750;DHT22;54550;48.838;8.828;2023-02-28T00:07:39;-3.50;99.90
67750;DHT22;54550;48.838;8.828;2023-02-28T00:10:07;-3.50;99.90
67750;DHT22;54550;48.838;8.828;2023-02-28T00:12:36;-3.60;99.90
67750;DHT22;54550;48.838;8.828;2023-02-28T00:15:05;-3.60;99.90
67750;DHT22;54550;48.838;8.828;2023-02-28T00:17:31;-3.70;99.90
67750;DHT22;54550;48.838;8.828;2023-02-28T00:19:56;-3.80;99.90
67750;DHT22;54550;48.838;8.828;2023-02-28T00:22:22;-3.80;99.90
67750;DHT22;54550;48.838;8.828;2023-02-28T00:24:48;-3.90;99.90
67750;DHT22;54550;48.838;8.828;2023-02-28T00:27:14;-3.90;99.90
67750;DHT22;54550;48.838;8.828;2023-02-28T00:29:40;-3.90;99.90
67750;DHT22;54550;48.838;8.828;2023-02-28T00:32:06;-3.80;99.90
67750;DHT22;54550;48.838;8.828;2023-02-28T00:34:32;-3.80;99.90
67750;DHT22;54550;48.838;8.828;2023-02-28T00:37:04;-3.80;99.90
67750;DHT22;54550;48.838;8.828;2023-02-28T00:39:30;-3.80;99.90
67750;DHT22;54550;48.838;8.828;2023-02-28T00:41:55;-3.90;99.90
67750;DHT22;54550;48.838;8.828;2023-02-28T00:44:21;-3.90;99.90
67750;DHT22;54550;48.838;8.828;2023-02-28T00:46:46;-4.00;99.90
67750;DHT22;54550;48.838;8.828;2023-02-28T00:49:12;-4.00;99.90
67750;DHT22;54550;48.838;8.828;2023-02-28T00:51:38;-3.90;99.90
67750;DHT22;54550;48.838;8.828;2023-02-28T00:54:03;-3.90;99.90
67750;DHT22;54550;48.838;8.828;2023-02-28T00:56:29;-4.00;99.90
67750;DHT22;54550;48.838;8.828;2023-02-28T00:58:54;-4.00;99.90
67750;DHT22;54550;48.838;8.828;2023-02-28T01:01:20;-4.00;99.90
67750;DHT22;54550;48.838;8.828;2023-02-28T01:03:45;-4.00;99.90
67750;DHT22;54550;48.838;8.828;2023-02-28T01:06:11;-4.00;99.90
67750;DHT22;54550;48.838;8.828;2023-02-28T01:08:36;-4.00;99.90
67750;DHT22;54550;48.838;8.828;2023-02-28T01:11:10;-4.00;99.90
67750;DHT22;54550;48.838;8.828;2023-02-28T01:13:36;-4.00;99.90
67750;DHT22;54550;48.838;8.828;2023-02-28T01:16:02;-4.00;99.90
67750;DHT22;54550;48.838;8.828;2023-02-28T01:18:27;-4.10;99.90
67750;DHT22;54550;48.838;8.828;2023-02-28T01:20:54;-4.10;99.90
67750;DHT22;54550;48.838;8.828;2023-02-28T01:23:21;-4.20;99.90
67750;DHT22;54550;48.838;8.828;2023-02-28T01:25:51;-4.20;99.90
67750;DHT22;54550;48.838;8.828;2023-02-28T01:28:17;-4.20;99.90
67750;DHT22;54550;48.838;8.828;2023-02-28T01:30:42;-4.20;99.90
67750;DHT22;54550;48.838;8.828;2023-02-28T01:33:09;-4.20;99.90
67750;DHT22;54550;48.838;8.828;2023-02-28T01:35:35;-4.20;99.90
67750;DHT22;54550;48.838;8.828;2023-02-28T01:38:02;-4.30;99.90
67750;DHT22;54550;48.838;8.828;2023-02-28T01:40:27;-4.40;99.90
67750;DHT22;54550;48.838;8.828;2023-02-28T01:42:53;-4.40;99.90
67750;DHT22;54550;48.838;8.828;2023-02-28T01:45:23;-4.40;99.90
67750;DHT22;54550;48.838;8.828;2023-02-28T01:47:52;-4.40;99.90
67750;DHT22;54550;48.838;8.828;2023-02-28T01:50:21;-4.40;99.90
67750;DHT22;54550;48.838;8.828;2023-02-28T01:52:50;-4.40;99.90
67750;DHT22;54550;48.838;8.828;2023-02-28T01:55:19;-4.40;99.90
67750;DHT22;54550;48.838;8.828;2023-02-28T01:57:52;-4.50;99.90
67750;DHT22;54550;48.838;8.828;2023-02-28T02:00:22;-4.50;99.90
67750;DHT22;54550;48.838;8.828;2023-02-28T02:02:52;-4.60;99.90
67750;DHT22;54550;48.838;8.828;2023-02-28T02:05:24;-4.60;99.90
67750;DHT22;54550;48.838;8.828;2023-02-28T02:08:24;-4.60;99.90
67750;DHT22;54550;48.838;8.828;2023-02-28T02:10:59;-4.60;99.90
67750;DHT22;54550;48.838;8.828;2023-02-28T02:13:34;-4.60;99.90
67750;DHT22;54550;48.838;8.828;2023-02-28T02:19:31;-4.60;99.90
67750;DHT22;54550;48.838;8.828;2023-02-28T02:24:59;-4.60;99.90
67750;DHT22;54550;48.838;8.828;2023-02-28T02:44:01;-4.50;99.90
67750;DHT22;54550;48.838;8.828;2023-02-28T02:46:38;-4.50;99.90
67750;DHT22;54550;48.838;8.828;2023-02-28T02:49:08;-4.50;99.90
67750;DHT22;54550;48.838;8.828;2023-02-28T02:51:36;-4.50;99.90
67750;DHT22;54550;48.838;8.828;2023-02-28T02:54:30;-4.40;99.90
67750;DHT22;54550;48.838;8.828;2023-02-28T02:57:00;-4.50;99.90
67750;DHT22;54550;48.838;8.828;2023-02-28T02:59:28;-4.40;99.90
67750;DHT22;54550;48.838;8.828;2023-02-28T03:01:59;-4.50;99.90
67750;DHT22;54550;48.838;8.828;2023-02-28T03:04:28;-4.40;99.90
67750;DHT22;54550;48.838;8.828;2023-02-28T03:06:55;-4.40;99.90
67750;DHT22;54550;48.838;8.828;2023-02-28T03:09:25;-4.40;99.90
67750;DHT22;54550;48.838;8.828;2023-02-28T03:11:52;-4.40;99.90
67750;DHT22;54550;48.838;8.828;2023-02-28T03:20:58;-4.40;99.90
67750;DHT22;54550;48.838;8.828;2023-02-28T03:23:44;-4.30;99.90
67750;DHT22;54550;48.838;8.828;2023-02-28T03:26:21;-4.30;99.90
67750;DHT22;54550;48.838;8.828;2023-02-28T03:29:20;-4.30;99.90
67750;DHT22;54550;48.838;8.828;2023-02-28T03:31:52;-4.30;99.90
67750;DHT22;54550;48.838;8.828;2023-02-28T03:34:25;-4.30;99.90
67750;DHT22;54550;48.838;8.828;2023-02-28T03:36:59;-4.30;99.90
67750;DHT22;54550;48.838;8.828;2023-02-28T03:39:37;-4.30;99.90
67750;DHT22;54550;48.838;8.828;2023-02-28T03:42:17;-4.30;99.90
67750;DHT22;54550;48.838;8.828;2023-02-28T03:44:51;-4.30;99.90
67750;DHT22;54550;48.838;8.828;2023-02-28T03:52:27;-4.30;99.90
67750;DHT22;54550;48.838;8.828;2023-02-28T03:54:56;-4.20;99.90
67750;DHT22;54550;48.838;8.828;2023-02-28T04:00:39;-4.20;99.90
67750;DHT22;54550;48.838;8.828;2023-02-28T04:03:05;-4.20;99.90
67750;DHT22;54550;48.838;8.828;2023-02-28T04:05:31;-4.20;99.90
67750;DHT22;54550;48.838;8.828;2023-02-28T04:08:05;-4.20;99.90
67750;DHT22;54550;48.838;8.828;2023-02-28T04:10:31;-4.10;99.90
67750;DHT22;54550;48.838;8.828;2023-02-28T04:12:57;-4.20;99.90
67750;DHT22;54550;48.838;8.828;2023-02-28T04:15:22;-4.20;99.90
67750;DHT22;54550;48.838;8.828;2023-02-28T04:17:50;-4.20;99.90
67750;DHT22;54550;48.838;8.828;2023-02-28T04:20:16;-4.20;99.90
67750;DHT22;54550;48.838;8.828;2023-02-28T04:22:42;-4.30;99.90
67750;DHT22;54550;48.838;8.828;2023-02-28T04:25:07;-4.30;99.90
67750;DHT22;54550;48.838;8.828;2023-02-28T04:27:33;-4.30;99.90
67750;DHT22;54550;48.838;8.828;2023-02-28T04:29:59;-4.30;99.90
67750;DHT22;54550;48.838;8.828;2023-02-28T04:32:25;-4.30;99.90
67750;DHT22;54550;48.838;8.828;2023-02-28T04:34:50;-4.30;99.90
67750;DHT22;54550;48.838;8.828;2023-02-28T04:37:16;-4.20;99.90
67750;DHT22;54550;48.838;8.828;2023-02-28T04:39:42;-4.20;99.90
67750;DHT22;54550;48.838;8.828;2023-02-28T04:42:08;-4.20;99.90
67750;DHT22;54550;48.838;8.828;2023-02-28T04:44:35;-4.20;99.90
67750;DHT22;54550;48.838;8.828;2023-02-28T04:47:01;-4.20;99.90
67750;DHT22;54550;48.838;8.828;2023-02-28T04:49:26;-4.20;99.90
67750;DHT22;54550;48.838;8.828;2023-02-28T04:51:52;-4.20;99.90
67750;DHT22;54550;48.838;8.828;2023-02-28T04:54:18;-4.20;99.90
67750;DHT22;54550;48.838;8.828;2023-02-28T04:56:44;-4.20;99.90
67750;DHT22;54550;48.838;8.828;2023-02-28T04:59:09;-4.20;99.90
67750;DHT22;54550;48.838;8.828;2023-02-28T05:01:35;-4.20;99.90
67750;DHT22;54550;48.838;8.828;2023-02-28T05:04:03;-4.20;99.90
67750;DHT22;54550;48.838;8.828;2023-02-28T05:06:32;-4.10;99.90
67750;DHT22;54550;48.838;8.828;2023-02-28T05:08:58;-4.10;99.90
67750;DHT22;54550;48.838;8.828;2023-02-28T05:11:33;-4.10;99.90
67750;DHT22;54550;48.838;8.828;2023-02-28T05:14:05;-4.10;99.90
67750;DHT22;54550;48.838;8.828;2023-02-28T05:16:32;-4.10;99.90
67750;DHT22;54550;48.838;8.828;2023-02-28T05:18:57;-4.00;99.90
67750;DHT22;54550;48.838;8.828;2023-02-28T05:23:54;-4.00;99.90
67750;DHT22;54550;48.838;8.828;2023-02-28T05:26:20;-4.00;99.90
67750;DHT22;54550;48.838;8.828;2023-02-28T05:28:46;-4.00;99.90
67750;DHT22;54550;48.838;8.828;2023-02-28T05:31:11;-3.90;99.90
67750;DHT22;54550;48.838;8.828;2023-02-28T05:33:37;-3.90;99.90
67750;DHT22;54550;48.838;8.828;2023-02-28T05:36:03;-3.90;99.90
67750;DHT22;54550;48.838;8.828;2023-02-28T05:38:29;-3.90;99.90
67750;DHT22;54550;48.838;8.828;2023-02-28T05:40:54;-3.90;99.90
67750;DHT22;54550;48.838;8.828;2023-02-28T05:43:21;-3.80;99.90
67750;DHT22;54550;48.838;8.828;2023-02-28T05:45:47;-3.80;99.90
67750;DHT22;54550;48.838;8.828;2023-02-28T05:48:12;-3.80;99.90
67750;DHT22;54550;48.838;8.828;2023-02-28T05:50:38;-3.80;99.90
67750;DHT22;54550;48.838;8.828;2023-02-28T05:53:03;-3.80;99.90
67750;DHT22;54550;48.838;8.828;2023-02-28T05:55:29;-3.80;99.90
67750;DHT22;54550;48.838;8.828;2023-02-28T05:57:55;-3.80;99.90
67750;DHT22;54550;48.838;8.828;2023-02-28T06:00:21;-3.70;99.90
67750;DHT22;54550;48.838;8.828;2023-02-28T06:02:47;-3.70;99.90
67750;DHT22;54550;48.838;8.828;2023-02-28T06:05:15;-3.70;99.90
67750;DHT22;54550;48.838;8.828;2023-02-28T06:07:41;-3.60;99.90
67750;DHT22;54550;48.838;8.828;2023-02-28T06:10:07;-3.70;99.90
67750;DHT22;54550;48.838;8.828;2023-02-28T06:12:32;-3.60;99.90
67750;DHT22;54550;48.838;8.828;2023-02-28T06:14:58;-3.60;99.90
67750;DHT22;54550;48.838;8.828;2023-02-28T06:17:23;-3.60;99.90
67750;DHT22;54550;48.838;8.828;2023-02-28T06:19:49;-3.50;99.90
67750;DHT22;54550;48.838;8.828;2023-02-28T06:22:14;-3.50;99.90
67750;DHT22;54550;48.838;8.828;2023-02-28T06:24:40;-3.50;99.90
67750;DHT22;54550;48.838;8.828;2023-02-28T06:27:05;-3.40;99.90
67750;DHT22;54550;48.838;8.828;2023-02-28T06:29:32;-3.40;99.90
67750;DHT22;54550;48.838;8.828;2023-02-28T06:31:58;-3.40;99.90
67750;DHT22;54550;48.838;8.828;2023-02-28T06:34:24;-3.40;99.90
67750;DHT22;54550;48.838;8.828;2023-02-28T06:36:51;-3.30;99.90
67750;DHT22;54550;48.838;8.828;2023-02-28T06:39:17;-3.30;99.90
67750;DHT22;54550;48.838;8.828;2023-02-28T06:41:43;-3.30;99.90
67750;DHT22;54550;48.838;8.828;2023-02-28T06:44:15;-3.20;99.90
67750;DHT22;54550;48.838;8.828;2023-02-28T06:46:42;-3.20;99.90
67750;DHT22;54550;48.838;8.828;2023-02-28T06:49:09;-3.20;99.90
67750;DHT22;54550;48.838;8.828;2023-02-28T06:51:35;-3.20;99.90
67750;DHT22;54550;48.838;8.828;2023-02-28T06:54:01;-3.20;99.90
67750;DHT22;54550;48.838;8.828;2023-02-28T06:56:27;-3.20;99.90
67750;DHT22;54550;48.838;8.828;2023-02-28T06:58:53;-3.10;99.90
67750;DHT22;54550;48.838;8.828;2023-02-28T07:01:19;-3.10;99.90
67750;DHT22;54550;48.838;8.828;2023-02-28T07:03:45;-3.10;99.90
67750;DHT22;54550;48.838;8.828;2023-02-28T07:06:10;-3.10;99.90
67750;DHT22;54550;48.838;8.828;2023-02-28T07:08:37;-3.00;99.90
67750;DHT22;54550;48.838;8.828;2023-02-28T07:11:03;-3.00;99.90
67750;DHT22;54550;48.838;8.828;2023-02-28T07:13:29;-3.00;99.90
67750;DHT22;54550;48.838;8.828;2023-02-28T07:16:03;-2.90;99.90
67750;DHT22;54550;48.838;8.828;2023-02-28T07:18:28;-2.90;99.90
67750;DHT22;54550;48.838;8.828;2023-02-28T07:20:54;-2.80;99.90
67750;DHT22;54550;48.838;8.828;2023-02-28T07:23:20;-2.80;99.90
67750;DHT22;54550;48.838;8.828;2023-02-28T07:25:46;-2.70;99.90
67750;DHT22;54550;48.838;8.828;2023-02-28T07:28:13;-2.70;99.90
67750;DHT22;54550;48.838;8.828;2023-02-28T07:30:39;-2.70;99.90
67750;DHT22;54550;48.838;8.828;2023-02-28T07:33:05;-2.70;99.90
67750;DHT22;54550;48.838;8.828;2023-02-28T07:35:30;-2.70;99.90
67750;DHT22;54550;48.838;8.828;2023-02-28T07:38:00;-2.60;99.90
67750;DHT22;54550;48.838;8.828;2023-02-28T07:40:26;-2.60;99.90
67750;DHT22;54550;48.838;8.828;2023-02-28T07:42:51;-2.50;99.90
67750;DHT22;54550;48.838;8.828;2023-02-28T07:45:17;-2.50;99.90
67750;DHT22;54550;48.838;8.828;2023-02-28T07:47:43;-2.50;99.90
67750;DHT22;54550;48.838;8.828;2023-02-28T07:50:12;-2.40;99.90
67750;DHT22;54550;48.838;8.828;2023-02-28T07:52:39;-2.40;99.90
67750;DHT22;54550;48.838;8.828;2023-02-28T07:55:06;-2.40;99.90
67750;DHT22;54550;48.838;8.828;2023-02-28T07:57:32;-2.30;99.90
67750;DHT22;54550;48.838;8.828;2023-02-28T07:59:57;-2.30;99.90
67750;DHT22;54550;48.838;8.828;2023-02-28T08:02:23;-2.40;99.90
67750;DHT22;54550;48.838;8.828;2023-02-28T08:04:49;-2.40;99.90
67750;DHT22;54550;48.838;8.828;2023-02-28T08:07:15;-2.40;99.90
67750;DHT22;54550;48.838;8.828;2023-02-28T08:09:42;-2.40;99.90
67750;DHT22;54550;48.838;8.828;2023-02-28T08:12:08;-2.40;99.90
67750;DHT22;54550;48.838;8.828;2023-02-28T08:14:34;-2.40;99.90
67750;DHT22;54550;48.838;8.828;2023-02-28T08:17:00;-2.40;99.90
67750;DHT22;54550;48.838;8.828;2023-02-28T08:19:26;-2.40;99.90
67750;DHT22;54550;48.838;8.828;2023-02-28T08:21:51;-2.30;99.90
67750;DHT22;54550;48.838;8.828;2023-02-28T08:24:17;-2.30;99.90
67750;DHT22;54550;48.838;8.828;2023-02-28T08:26:42;-2.30;99.90
67750;DHT22;54550;48.838;8.828;2023-02-28T08:29:08;-2.30;99.90
67750;DHT22;54550;48.838;8.828;2023-02-28T08:31:34;-2.30;99.90
67750;DHT22;54550;48.838;8.828;2023-02-28T08:34:07;-2.30;99.90
67750;DHT22;54550;48.838;8.828;2023-02-28T08:36:33;-2.20;99.90
67750;DHT22;54550;48.838;8.828;2023-02-28T08:38:59;-2.20;99.90
67750;DHT22;54550;48.838;8.828;2023-02-28T08:41:25;-2.20;99.90
67750;DHT22;54550;48.838;8.828;2023-02-28T08:43:51;-2.30;99.90
67750;DHT22;54550;48.838;8.828;2023-02-28T08:46:17;-2.30;99.90
67750;DHT22;54550;48.838;8.828;2023-02-28T08:48:43;-2.20;99.90
67750;DHT22;54550;48.838;8.828;2023-02-28T08:51:12;-2.30;99.90
67750;DHT22;54550;48.838;8.828;2023-02-28T08:53:39;-2.20;99.90
67750;DHT22;54550;48.838;8.828;2023-02-28T08:56:10;-2.10;99.90
67750;DHT22;54550;48.838;8.828;2023-02-28T08:58:37;-2.10;99.90
67750;DHT22;54550;48.838;8.828;2023-02-28T09:01:11;-2.00;99.90
67750;DHT22;54550;48.838;8.828;2023-02-28T09:03:37;-2.00;99.90
67750;DHT22;54550;48.838;8.828;2023-02-28T09:06:03;-2.10;99.90
67750;DHT22;54550;48.838;8.828;2023-02-28T09:08:30;-2.00;99.90
67750;DHT22;54550;48.838;8.828;2023-02-28T09:10:56;-2.00;99.90
67750;DHT22;54550;48.838;8.828;2023-02-28T09:13:24;-1.90;99.90
67750;DHT22;54550;48.838;8.828;2023-02-28T09:15:49;-1.90;99.90
67750;DHT22;54550;48.838;8.828;2023-02-28T09:18:15;-1.80;99.90
67750;DHT22;54550;48.838;8.828;2023-02-28T09:20:42;-1.90;99.90
67750;DHT22;54550;48.838;8.828;2023-02-28T09:23:09;-1.90;99.90
67750;DHT22;54550;48.838;8.828;2023-02-28T09:25:36;-1.70;99.90
67750;DHT22;54550;48.838;8.828;2023-02-28T09:28:02;-1.80;99.90
67750;DHT22;54550;48.838;8.828;2023-02-28T09:30:28;-1.80;99.90
67750;DHT22;54550;48.838;8.828;2023-02-28T09:32:54;-1.70;99.90
67750;DHT22;54550;48.838;8.828;2023-02-28T09:35:21;-1.80;99.90
67750;DHT22;54550;48.838;8.828;2023-02-28T09:37:48;-1.80;99.90
67750;DHT22;54550;48.838;8.828;2023-02-28T09:40:14;-1.70;99.90
67750;DHT22;54550;48.838;8.828;2023-02-28T09:42:44;-1.70;99.90
67750;DHT22;54550;48.838;8.828;2023-02-28T09:45:37;-1.50;99.90
67750;DHT22;54550;48.838;8.828;2023-02-28T09:48:06;-1.40;99.90
67750;DHT22;54550;48.838;8.828;2023-02-28T09:50:40;-1.40;99.90
67750;DHT22;54550;48.838;8.828;2023-02-28T09:55:52;-1.30;99.90
67750;DHT22;54550;48.838;8.828;2023-02-28T09:58:48;-1.20;99.90
67750;DHT22;54550;48.838;8.828;2023-02-28T10:01:30;-1.30;99.90
67750;DHT22;54550;48.838;8.828;2023-02-28T10:04:37;-1.00;99.90
67750;DHT22;54550;48.838;8.828;2023-02-28T10:08:00;-1.00;99.90
67750;DHT22;54550;48.838;8.828;2023-02-28T10:09:58;-1.00;99.90
67750;DHT22;54550;48.838;8.828;2023-02-28T10:12:27;-0.90;99.90
67750;DHT22;54550;48.838;8.828;2023-02-28T10:14:55;-0.90;99.90
67750;DHT22;54550;48.838;8.828;2023-02-28T10:17:38;-0.80;99.90
67750;DHT22;54550;48.838;8.828;2023-02-28T10:20:10;-0.70;99.90
67750;DHT22;54550;48.838;8.828;2023-02-28T10:25:28;-0.80;99.90
67750;DHT22;54550;48.838;8.828;2023-02-28T10:28:09;-0.90;99.90
67750;DHT22;54550;48.838;8.828;2023-02-28T10:30:38;-0.80;99.90
67750;DHT22;54550;48.838;8.828;2023-02-28T10:33:05;-0.80;99.90
67750;DHT22;54550;48.838;8.828;2023-02-28T10:35:31;-0.70;99.90
67750;DHT22;54550;48.838;8.828;2023-02-28T10:38:00;-0.60;99.90
67750;DHT22;54550;48.838;8.828;2023-02-28T10:40:33;-0.50;99.90
67750;DHT22;54550;48.838;8.828;2023-02-28T10:45:38;-0.60;99.90
67750;DHT22;54550;48.838;8.828;2023-02-28T10:48:06;-0.50;99.90
67750;DHT22;54550;48.838;8.828;2023-02-28T10:50:51;-0.40;99.90
67750;DHT22;54550;48.838;8.828;2023-02-28T11:01:23;0.20;99.90
67750;DHT22;54550;48.838;8.828;2023-02-28T11:03:50;0.40;99.90
67750;DHT22;54550;48.838;8.828;2023-02-28T11:06:26;0.50;99.90
67750;DHT22;54550;48.838;8.828;2023-02-28T11:09:06;0.50;99.90
67750;DHT22;54550;48.838;8.828;2023-02-28T11:11:43;0.50;99.90
67750;DHT22;54550;48.838;8.828;2023-02-28T11:14:25;0.40;99.90
67750;DHT22;54550;48.838;8.828;2023-02-28T11:16:52;0.60;99.90
67750;DHT22;54550;48.838;8.828;2023-02-28T11:19:28;0.70;99.90
67750;DHT22;54550;48.838;8.828;2023-02-28T11:21:59;0.70;99.90
67750;DHT22;54550;48.838;8.828;2023-02-28T11:24:33;0.90;99.90
67750;DHT22;54550;48.838;8.828;2023-02-28T11:27:00;1.10;99.90
67750;DHT22;54550;48.838;8.828;2023-02-28T11:29:31;1.20;99.90
67750;DHT22;54550;48.838;8.828;2023-02-28T11:34:42;1.80;99.90
67750;DHT22;54550;48.838;8.828;2023-02-28T11:37:14;2.20;99.90
67750;DHT22;54550;48.838;8.828;2023-02-28T11:39:41;2.00;99.90
67750;DHT22;54550;48.838;8.828;2023-02-28T11:42:20;2.30;99.90
67750;DHT22;54550;48.838;8.828;2023-02-28T11:45:17;2.40;99.90
67750;DHT22;54550;48.838;8.828;2023-02-28T11:47:53;2.50;99.90
67750;DHT22;54550;48.838;8.828;2023-02-28T11:55:47;1.90;99.90
67750;DHT22;54550;48.838;8.828;2023-02-28T12:01:15;1.80;99.90
67750;DHT22;54550;48.838;8.828;2023-02-28T12:06:28;1.60;99.90
67750;DHT22;54550;48.838;8.828;2023-02-28T12:11:54;1.60;99.90
67750;DHT22;54550;48.838;8.828;2023-02-28T12:28:21;2.40;99.90
67750;DHT22;54550;48.838;8.828;2023-02-28T12:31:13;2.50;99.90
67750;DHT22;54550;48.838;8.828;2023-02-28T12:33:48;2.90;99.90
67750;DHT22;54550;48.838;8.828;2023-02-28T12:36:18;3.30;99.40
67750;DHT22;54550;48.838;8.828;2023-02-28T12:39:12;3.20;99.20
67750;DHT22;54550;48.838;8.828;2023-02-28T12:41:48;2.90;99.50
67750;DHT22;54550;48.838;8.828;2023-02-28T12:46:59;2.60;99.90
67750;DHT22;54550;48.838;8.828;2023-02-28T12:49:30;2.40;99.90
67750;DHT22;54550;48.838;8.828;2023-02-28T12:51:58;2.40;99.90
67750;DHT22;54550;48.838;8.828;2023-02-28T12:59:48;3.70;99.10
67750;DHT22;54550;48.838;8.828;2023-02-28T13:08:48;4.40;97.30
67750;DHT22;54550;48.838;8.828;2023-02-28T13:11:06;4.20;97.30
67750;DHT22;54550;48.838;8.828;2023-02-28T13:13:32;3.70;98.00
67750;DHT22;54550;48.838;8.828;2023-02-28T13:16:09;3.70;98.30
67750;DHT22;54550;48.838;8.828;2023-02-28T13:18:41;4.00;98.00
67750;DHT22;54550;48.838;8.828;2023-02-28T13:21:25;3.70;97.60
67750;DHT22;54550;48.838;8.828;2023-02-28T13:42:47;5.40;95.50
67750;DHT22;54550;48.838;8.828;2023-02-28T13:45:27;5.40;95.20
67750;DHT22;54550;48.838;8.828;2023-02-28T13:48:02;4.90;96.60
67750;DHT22;54550;48.838;8.828;2023-02-28T13:50:35;4.40;96.10
67750;DHT22;54550;48.838;8.828;2023-02-28T14:01:21;3.50;97.40
67750;DHT22;54550;48.838;8.828;2023-02-28T14:06:30;4.60;97.00
67750;DHT22;54550;48.838;8.828;2023-02-28T14:11:42;4.40;96.10
67750;DHT22;54550;48.838;8.828;2023-02-28T14:16:55;3.80;96.70
67750;DHT22;54550;48.838;8.828;2023-02-28T14:19:26;4.00;96.70
67750;DHT22;54550;48.838;8.828;2023-02-28T14:27:48;4.40;96.20
67750;DHT22;54550;48.838;8.828;2023-02-28T14:33:18;3.80;96.80
67750;DHT22;54550;48.838;8.828;2023-02-28T14:36:36;3.70;96.70
67750;DHT22;54550;48.838;8.828;2023-02-28T14:38:45;3.70;97.20
67750;DHT22;54550;48.838;8.828;2023-02-28T14:41:38;3.90;97.80
67750;DHT22;54550;48.838;8.828;2023-02-28T14:44:27;3.80;97.90
67750;DHT22;54550;48.838;8.828;2023-02-28T14:47:01;3.80;97.70
67750;DHT22;54550;48.838;8.828;2023-02-28T14:49:36;3.70;97.90
67750;DHT22;54550;48.838;8.828;2023-02-28T14:54:40;3.60;97.70
67750;DHT22;54550;48.838;8.828;2023-02-28T14:57:06;3.40;98.30
67750;DHT22;54550;48.838;8.828;2023-02-28T14:59:35;3.40;98.60
67750;DHT22;54550;48.838;8.828;2023-02-28T15:02:33;3.50;98.70
67750;DHT22;54550;48.838;8.828;2023-02-28T15:05:02;3.60;98.50
67750;DHT22;54550;48.838;8.828;2023-02-28T15:07:35;3.50;98.60
67750;DHT22;54550;48.838;8.828;2023-02-28T15:10:23;3.30;98.80
67750;DHT22;54550;48.838;8.828;2023-02-28T15:15:19;3.20;99.10
67750;DHT22;54550;48.838;8.828;2023-02-28T15:17:49;3.20;98.90
67750;DHT22;54550;48.838;8.828;2023-02-28T15:20:16;3.20;99.30
67750;DHT22;54550;48.838;8.828;2023-02-28T15:22:42;3.10;99.30
67750;DHT22;54550;48.838;8.828;2023-02-28T15:25:10;3.10;99.50
67750;DHT22;54550;48.838;8.828;2023-02-28T15:27:44;3.10;99.50
67750;DHT22;54550;48.838;8.828;2023-02-28T15:30:34;3.10;99.70
67750;DHT22;54550;48.838;8.828;2023-02-28T15:33:21;3.00;99.80
67750;DHT22;54550;48.838;8.828;2023-02-28T15:35:47;3.10;99.90
67750;DHT22;54550;48.838;8.828;2023-02-28T15:38:14;3.00;99.90
67750;DHT22;54550;48.838;8.828;2023-02-28T15:40:53;2.90;99.90
67750;DHT22;54550;48.838;8.828;2023-02-28T15:43:30;2.90;99.90
67750;DHT22;54550;48.838;8.828;2023-02-28T15:53:41;2.90;99.80
67750;DHT22;54550;48.838;8.828;2023-02-28T15:56:26;3.00;99.90
67750;DHT22;54550;48.838;8.828;2023-02-28T15:58:58;3.00;99.90
67750;DHT22;54550;48.838;8.828;2023-02-28T16:01:29;2.90;99.90
67750;DHT22;54550;48.838;8.828;2023-02-28T16:03:59;2.80;99.90
67750;DHT22;54550;48.838;8.828;2023-02-28T16:09:04;2.70;99.90
67750;DHT22;54550;48.838;8.828;2023-02-28T16:11:32;2.60;99.90
67750;DHT22;54550;48.838;8.828;2023-02-28T16:13:58;2.50;99.90
67750;DHT22;54550;48.838;8.828;2023-02-28T16:16:26;2.50;99.90
67750;DHT22;54550;48.838;8.828;2023-02-28T16:18:52;2.50;99.90
67750;DHT22;54550;48.838;8.828;2023-02-28T16:21:17;2.40;99.90
67750;DHT22;54550;48.838;8.828;2023-02-28T16:23:43;2.30;99.90
67750;DHT22;54550;48.838;8.828;2023-02-28T16:26:18;2.30;99.90
67750;DHT22;54550;48.838;8.828;2023-02-28T16:28:44;2.20;99.90
67750;DHT22;54550;48.838;8.828;2023-02-28T16:31:12;2.20;99.90
67750;DHT22;54550;48.838;8.828;2023-02-28T16:33:45;2.10;99.90
67750;DHT22;54550;48.838;8.828;2023-02-28T16:36:22;2.10;99.90
67750;DHT22;54550;48.838;8.828;2023-02-28T16:38:50;2.10;99.90
67750;DHT22;54550;48.838;8.828;2023-02-28T16:41:29;1.90;99.90
67750;DHT22;54550;48.838;8.828;2023-02-28T16:43:56;1.90;99.90
67750;DHT22;54550;48.838;8.828;2023-02-28T16:46:32;1.80;99.90
67750;DHT22;54550;48.838;8.828;2023-02-28T16:48:58;1.70;99.90
67750;DHT22;54550;48.838;8.828;2023-02-28T16:51:24;1.70;99.90
67750;DHT22;54550;48.838;8.828;2023-02-28T16:53:49;1.70;99.90
67750;DHT22;54550;48.838;8.828;2023-02-28T16:56:24;1.60;99.90
67750;DHT22;54550;48.838;8.828;2023-02-28T16:58:51;1.50;99.90
67750;DHT22;54550;48.838;8.828;2023-02-28T17:01:18;1.40;99.90
67750;DHT22;54550;48.838;8.828;2023-02-28T17:03:47;1.30;99.90
67750;DHT22;54550;48.838;8.828;2023-02-28T17:06:20;1.30;99.90
67750;DHT22;54550;48.838;8.828;2023-02-28T17:08:48;1.20;99.90
67750;DHT22;54550;48.838;8.828;2023-02-28T17:11:14;1.10;99.90
67750;DHT22;54550;48.838;8.828;2023-02-28T17:13:39;1.10;99.90
67750;DHT22;54550;48.838;8.828;2023-02-28T17:16:05;1.10;99.90
67750;DHT22;54550;48.838;8.828;2023-02-28T17:18:31;1.00;99.90
67750;DHT22;54550;48.838;8.828;2023-02-28T17:21:00;0.90;99.90
67750;DHT22;54550;48.838;8.828;2023-02-28T17:23:26;0.80;99.90
67750;DHT22;54550;48.838;8.828;2023-02-28T17:25:51;0.80;99.90
67750;DHT22;54550;48.838;8.828;2023-02-28T17:28:21;0.70;99.90
67750;DHT22;54550;48.838;8.828;2023-02-28T17:30:47;0.60;99.90
67750;DHT22;54550;48.838;8.828;2023-02-28T17:33:14;0.60;99.90
67750;DHT22;54550;48.838;8.828;2023-02-28T17:35:39;0.60;99.90
67750;DHT22;54550;48.838;8.828;2023-02-28T17:38:07;0.50;99.90
67750;DHT22;54550;48.838;8.828;2023-02-28T17:40:34;0.50;99.90
67750;DHT22;54550;48.838;8.828;2023-02-28T17:43:01;0.60;99.90
67750;DHT22;54550;48.838;8.828;2023-02-28T17:45:27;0.50;99.90
67750;DHT22;54550;48.838;8.828;2023-02-28T17:47:52;0.50;99.90
67750;DHT22;54550;48.838;8.828;2023-02-28T17:50:20;0.50;99.90
67750;DHT22;54550;48.838;8.828;2023-02-28T17:52:46;0.50;99.90
67750;DHT22;54550;48.838;8.828;2023-02-28T17:55:12;0.50;99.90
67750;DHT22;54550;48.838;8.828;2023-02-28T17:57:38;0.50;99.90
67750;DHT22;54550;48.838;8.828;2023-02-28T18:00:05;0.40;99.90
67750;DHT22;54550;48.838;8.828;2023-02-28T18:02:32;0.40;99.90
67750;DHT22;54550;48.838;8.828;2023-02-28T18:04:58;0.30;99.90
67750;DHT22;54550;48.838;8.828;2023-02-28T18:07:24;0.30;99.90
67750;DHT22;54550;48.838;8.828;2023-02-28T18:09:50;0.30;99.90
67750;DHT22;54550;48.838;8.828;2023-02-28T18:12:15;0.20;99.90
67750;DHT22;54550;48.838;8.828;2023-02-28T18:14:41;0.20;99.90
67750;DHT22;54550;48.838;8.828;2023-02-28T18:17:09;0.20;99.90
67750;DHT22;54550;48.838;8.828;2023-02-28T18:19:37;0.20;99.90
67750;DHT22;54550;48.838;8.828;2023-02-28T18:22:03;0.20;99.90
67750;DHT22;54550;48.838;8.828;2023-02-28T18:24:29;0.20;99.90
67750;DHT22;54550;48.838;8.828;2023-02-28T18:26:55;0.10;99.90
67750;DHT22;54550;48.838;8.828;2023-02-28T18:29:25;0.10;99.90
67750;DHT22;54550;48.838;8.828;2023-02-28T18:31:52;0.10;99.90